createdAt,value
2022-08-03T00:02:24.584Z,100389.94
2022-08-03T00:07:27.748Z,100391.38
2022-08-03T00:12:32.001Z,100394.75
2022-08-03T00:17:52.935Z,100389.88
2022-08-03T00:22:56.898Z,100378.66
2022-08-03T00:28:01.184Z,100379.91
2022-08-03T00:33:04.352Z,100380.94
2022-08-03T00:38:07.354Z,100382.81
2022-08-03T00:43:11.690Z,100376.53
2022-08-03T00:48:29.549Z,100380.09
2022-08-03T00:53:37.391Z,100382.72
2022-08-03T00:58:41.651Z,100369.38
2022-08-03T01:03:44.436Z,100369.44
2022-08-03T01:09:02.570Z,100365.47
2022-08-03T01:14:18.179Z,100358.81
2022-08-03T01:19:37.897Z,100354.78
2022-08-03T01:24:51.864Z,100362.38
2022-08-03T01:30:02.742Z,100367.16
2022-08-03T01:35:12.638Z,100362.59
2022-08-03T01:40:17.181Z,100356.94
2022-08-03T01:45:23.249Z,100358.72
2022-08-03T01:50:30.084Z,100362.38
2022-08-03T01:55:35.324Z,100366.19
2022-08-03T02:00:40.681Z,100351.28
2022-08-03T02:05:46.140Z,100351.50
2022-08-03T02:10:50.727Z,100345.34
2022-08-03T02:15:56.832Z,100353.59
2022-08-03T02:21:01.784Z,100345.19
2022-08-03T02:26:16.817Z,100346.22
2022-08-03T02:31:25.479Z,100350.16
2022-08-03T02:36:31.787Z,100349.31
2022-08-03T02:41:42.979Z,100345.59
2022-08-03T02:46:49.869Z,100346.03
2022-08-03T02:51:54.381Z,100339.69
2022-08-03T02:56:58.959Z,100335.88
2022-08-03T03:02:03.942Z,100339.81
2022-08-03T03:07:06.980Z,100338.81
2022-08-03T03:12:13.910Z,100344.97
2022-08-03T03:17:19.048Z,100340.63
2022-08-03T03:22:22.961Z,100344.19
2022-08-03T03:27:26.437Z,100347.13
2022-08-03T03:32:31.711Z,100350.22
2022-08-03T03:37:34.761Z,100347.53
2022-08-03T03:42:38.738Z,100356.06
2022-08-03T03:47:43.198Z,100351.97
2022-08-03T03:52:46.141Z,100362.72
2022-08-03T03:57:48.913Z,100347.97
2022-08-03T04:02:53.093Z,100356.28
2022-08-03T04:08:17.595Z,100356.66
2022-08-03T04:13:22.943Z,100356.28
2022-08-03T04:18:29.666Z,100355.97
2022-08-03T04:23:36.754Z,100359.47
2022-08-03T04:28:42.309Z,100359.63
2022-08-03T04:33:47.453Z,100359.25
2022-08-03T04:38:57.040Z,100364.13
2022-08-03T04:44:01.885Z,100367.44
2022-08-03T04:49:07.115Z,100373.19
2022-08-03T04:54:13.455Z,100365.81
2022-08-03T04:59:17.797Z,100363.94
2022-08-03T05:04:23.040Z,100362.63
2022-08-03T05:09:50.143Z,100364.44
2022-08-03T05:14:48.611Z,100369.31
2022-08-03T05:19:52.805Z,100368.84
2022-08-03T05:24:55.629Z,100366.66
2022-08-03T05:30:29.721Z,100367.72
2022-08-03T05:36:00.449Z,100379.28
2022-08-03T05:40:57.611Z,100373.88
2022-08-03T05:46:12.836Z,100376.06
2022-08-03T05:51:17.457Z,100379.84
2022-08-03T05:56:23.502Z,100378.50
2022-08-03T06:01:26.292Z,100379.72
2022-08-03T06:06:32.426Z,100383.81
2022-08-03T06:11:35.409Z,100378.25
2022-08-03T06:16:38.211Z,100376.03
2022-08-03T06:21:42.500Z,100373.41
2022-08-03T06:26:46.066Z,100373.50
2022-08-03T06:31:49.026Z,100384.75
2022-08-03T06:36:58.641Z,100385.75
2022-08-03T06:42:04.924Z,100379.13
2022-08-03T06:47:09.672Z,100376.91
2022-08-03T06:52:13.860Z,100386.91
2022-08-03T06:57:36.650Z,100385.44
2022-08-03T07:02:39.765Z,100384.00
2022-08-03T07:07:44.526Z,100383.34
2022-08-03T07:12:56.032Z,100380.88
2022-08-03T07:17:59.839Z,100383.59
2022-08-03T07:23:03.988Z,100385.84
2022-08-03T07:28:06.928Z,100392.31
2022-08-03T07:33:09.786Z,100390.84
2022-08-03T07:38:14.008Z,100399.44
2022-08-03T07:43:17.654Z,100393.00
2022-08-03T07:48:20.505Z,100393.44
2022-08-03T07:53:25.885Z,100390.41
2022-08-03T07:58:28.726Z,100380.03
2022-08-03T08:03:52.952Z,100391.84
2022-08-03T08:08:59.529Z,100393.41
2022-08-03T08:14:03.866Z,100390.94
2022-08-03T08:19:06.772Z,100386.38
2022-08-03T08:24:13.312Z,100395.94
2022-08-03T08:29:23.132Z,100392.78
2022-08-03T08:34:25.898Z,100388.88
2022-08-03T08:39:30.096Z,100395.72
2022-08-03T08:44:32.881Z,100376.94
2022-08-03T08:49:37.757Z,100385.88
2022-08-03T08:54:45.249Z,100377.25
2022-08-03T08:59:49.734Z,100386.84
2022-08-03T09:04:54.988Z,100382.38
2022-08-03T09:10:10.745Z,100375.72
2022-08-03T09:15:18.686Z,100375.72
2022-08-03T09:20:22.871Z,100369.97
2022-08-03T09:25:32.670Z,100370.13
2022-08-03T09:30:35.962Z,100372.00
2022-08-03T09:35:58.818Z,100367.34
2022-08-03T09:41:03.078Z,100362.31
2022-08-03T09:46:07.584Z,100359.09
2022-08-03T09:52:27.310Z,100368.63
2022-08-03T09:56:42.639Z,100362.47
2022-08-03T10:01:45.577Z,100371.53
2022-08-03T10:07:05.496Z,100362.88
2022-08-03T10:12:11.367Z,100363.31
2022-08-03T10:17:14.780Z,100348.53
2022-08-03T10:22:20.737Z,100364.34
2022-08-03T10:27:26.039Z,100349.53
2022-08-03T10:32:31.725Z,100337.38
2022-08-03T10:37:42.051Z,100344.81
2022-08-03T10:43:08.949Z,100344.81
2022-08-03T10:48:12.350Z,100333.38
2022-08-03T10:53:16.683Z,100336.50
2022-08-03T10:58:57.239Z,100340.94
2022-08-03T11:04:17.364Z,100321.25
2022-08-03T11:09:20.154Z,100322.81
2022-08-03T11:14:24.339Z,100316.31
2022-08-03T11:19:57.390Z,100322.75
2022-08-03T11:25:01.800Z,100314.00
2022-08-03T11:30:09.527Z,100312.78
2022-08-03T11:35:14.739Z,100308.03
2022-08-03T11:40:39.981Z,100314.91
2022-08-03T11:45:58.090Z,100305.59
2022-08-03T11:51:01.426Z,100299.88
2022-08-03T11:56:04.468Z,100327.34
2022-08-03T12:01:22.632Z,100314.34
2022-08-03T12:06:25.497Z,100301.94
2022-08-03T12:11:30.586Z,100302.06
2022-08-03T12:16:34.785Z,100302.72
2022-08-03T12:21:55.823Z,100297.47
2022-08-03T12:27:00.239Z,100286.84
2022-08-03T12:32:04.778Z,100294.72
2022-08-03T12:37:21.729Z,100291.88
2022-08-03T12:42:34.950Z,100281.34
2022-08-03T12:47:56.625Z,100287.31
2022-08-03T12:53:00.881Z,100281.31
2022-08-03T12:58:04.617Z,100275.13
2022-08-03T13:03:41.833Z,100272.72
2022-08-03T13:08:31.805Z,100277.53
2022-08-03T13:13:41.196Z,100270.53
2022-08-03T13:18:46.584Z,100268.81
2022-08-03T13:23:50.868Z,100253.69
2022-08-03T13:28:53.645Z,100267.38
2022-08-03T13:33:57.796Z,100258.38
2022-08-03T13:39:00.607Z,100252.28
2022-08-03T13:44:26.668Z,100254.28
2022-08-03T13:49:30.078Z,100239.47
2022-08-03T13:54:33.922Z,100241.25
2022-08-03T13:59:36.692Z,100234.94
2022-08-03T14:04:40.837Z,100230.56
2022-08-03T14:09:43.608Z,100232.38
2022-08-03T14:14:46.353Z,100222.81
2022-08-03T14:19:53.045Z,100225.25
2022-08-03T14:24:56.549Z,100220.56
2022-08-03T14:30:01.389Z,100225.75
2022-08-03T14:35:06.570Z,100216.81
2022-08-03T14:40:09.970Z,100207.75
2022-08-03T14:45:20.506Z,100205.78
2022-08-03T14:50:31.739Z,100208.47
2022-08-03T14:55:49.999Z,100205.75
2022-08-03T15:00:55.080Z,100198.59
2022-08-03T15:05:59.229Z,100193.31
2022-08-03T15:11:02.038Z,100183.38
2022-08-03T15:16:08.710Z,100188.53
2022-08-03T15:21:16.661Z,100188.91
2022-08-03T15:26:41.038Z,100176.06
2022-08-03T15:31:44.539Z,100185.78
2022-08-03T15:36:48.714Z,100176.88
2022-08-03T15:41:51.605Z,100172.00
2022-08-03T15:46:54.662Z,100171.59
2022-08-03T15:51:59.227Z,100173.22
2022-08-03T15:57:01.998Z,100178.63
2022-08-03T16:02:05.118Z,100161.28
2022-08-03T16:07:12.818Z,100167.06
2022-08-03T16:12:16.859Z,100173.94
2022-08-03T16:17:20.192Z,100181.91
2022-08-03T16:22:24.841Z,100172.16
2022-08-03T16:27:58.098Z,100167.19
2022-08-03T16:32:51.237Z,100165.78
2022-08-03T16:37:56.455Z,100171.78
2022-08-03T16:43:00.067Z,100170.28
2022-08-03T16:48:05.746Z,100158.50
2022-08-03T16:53:12.829Z,100164.34
2022-08-03T16:58:24.497Z,100156.50
2022-08-03T17:04:01.369Z,100166.44
2022-08-03T17:09:09.867Z,100151.03
2022-08-03T17:14:14.650Z,100159.81
2022-08-03T17:19:19.120Z,100159.28
2022-08-03T17:24:28.301Z,100160.19
2022-08-03T17:29:34.953Z,100153.75
2022-08-03T17:34:39.495Z,100155.66
2022-08-03T17:40:00.058Z,100151.53
2022-08-03T17:45:03.887Z,100155.31
2022-08-03T17:50:25.230Z,100161.13
2022-08-03T17:55:55.893Z,100159.66
2022-08-03T18:01:58.286Z,100169.16
2022-08-03T18:12:07.586Z,100170.09
2022-08-03T18:17:19.144Z,100176.09
2022-08-03T18:22:25.204Z,100179.19
2022-08-03T18:33:01.089Z,100179.09
2022-08-03T18:38:19.362Z,100187.25
2022-08-03T18:43:45.334Z,100180.81
2022-08-03T18:48:57.751Z,100185.47
2022-08-03T18:54:08.733Z,100188.09
2022-08-03T19:05:02.887Z,100183.28
2022-08-03T19:10:09.277Z,100195.06
2022-08-03T19:15:15.699Z,100197.81
2022-08-03T19:20:22.519Z,100206.38
2022-08-03T19:25:34.600Z,100202.31
2022-08-03T19:30:40.687Z,100205.22
2022-08-03T19:35:55.622Z,100207.25
2022-08-03T19:41:03.214Z,100209.38
2022-08-03T19:46:13.333Z,100210.22
2022-08-03T19:51:26.986Z,100199.84
2022-08-03T19:56:47.528Z,100212.31
2022-08-03T20:01:51.230Z,100211.66
2022-08-03T20:06:58.673Z,100216.47
2022-08-03T20:12:01.765Z,100214.19
2022-08-03T20:17:09.305Z,100218.66
2022-08-03T20:22:17.957Z,100221.16
2022-08-03T20:27:22.178Z,100215.69
2022-08-03T20:32:34.249Z,100215.44
2022-08-03T20:37:38.530Z,100220.31
2022-08-03T20:42:44.634Z,100218.50
2022-08-03T20:47:50.590Z,100226.88
2022-08-03T20:53:12.483Z,100223.72
2022-08-03T20:58:15.630Z,100231.16
2022-08-03T21:03:19.521Z,100219.56
2022-08-03T21:08:27.797Z,100213.84
2022-08-03T21:12:56.701Z,100171.06
2022-08-03T21:12:58.033Z,100178.03
2022-08-03T21:13:39.247Z,100224.66
2022-08-03T21:18:47.194Z,100225.44
2022-08-03T21:23:54.959Z,100232.13
2022-08-03T21:28:58.039Z,100220.50
2022-08-03T21:34:03.911Z,100215.16
2022-08-03T21:39:09.950Z,100222.50
2022-08-03T21:44:12.937Z,100212.00
2022-08-03T21:50:05.893Z,100221.09
2022-08-03T21:54:43.889Z,100220.06
2022-08-03T21:59:52.965Z,100218.06
2022-08-03T22:04:58.027Z,100218.63
2022-08-03T22:10:05.461Z,100230.81
2022-08-03T22:15:11.029Z,100228.31
2022-08-03T22:20:15.273Z,100223.09
2022-08-03T22:25:22.182Z,100217.22
2022-08-03T22:30:25.065Z,100215.66
2022-08-03T22:35:28.425Z,100220.34
2022-08-03T22:40:32.826Z,100230.50
2022-08-03T22:45:45.832Z,100233.09
2022-08-03T22:51:00.577Z,100230.19
2022-08-03T22:56:05.270Z,100237.22
2022-08-03T23:01:09.871Z,100239.91
2022-08-03T23:06:12.932Z,100242.72
2022-08-03T23:11:19.390Z,100238.69
2022-08-03T23:16:29.371Z,100238.69
2022-08-03T23:21:53.946Z,100235.72
2022-08-03T23:26:57.597Z,100231.72
2022-08-03T23:32:02.843Z,100235.97
2022-08-03T23:37:06.800Z,100232.78
2022-08-03T23:42:12.337Z,100221.22
2022-08-03T23:47:15.733Z,100222.06
2022-08-03T23:52:33.983Z,100224.59
2022-08-03T23:57:52.942Z,100221.88
